createdAt,value
2022-11-09T18:27:17.524Z,1015.05
2022-11-09T18:32:18.675Z,1015.01
2022-11-09T18:37:16.140Z,1015.07
2022-11-09T18:42:17.334Z,1015.18
2022-11-09T18:47:26.024Z,1015.19
2022-11-09T18:52:14.784Z,1015.30
2022-11-09T18:57:19.506Z,1015.34
2022-11-09T19:02:12.345Z,1015.25
2022-11-09T19:07:12.548Z,1015.26
2022-11-09T19:12:11.484Z,1015.25
2022-11-09T19:17:13.021Z,1015.35
2022-11-09T19:22:10.103Z,1015.36
2022-11-09T19:27:08.307Z,1015.36
2022-11-09T19:32:08.264Z,1015.46
2022-11-09T19:37:08.787Z,1015.50
2022-11-09T19:42:05.711Z,1015.53
2022-11-09T19:47:05.034Z,1015.62
2022-11-09T19:52:06.130Z,1015.57
2022-11-09T19:57:04.761Z,1015.63
2022-11-09T20:02:02.918Z,1015.66
2022-11-09T20:07:02.220Z,1015.67
2022-11-09T20:12:01.297Z,1015.58
2022-11-09T20:17:03.417Z,1015.68
2022-11-09T20:21:59.569Z,1015.73
2022-11-09T20:26:59.999Z,1015.85
2022-11-09T20:31:58.317Z,1015.80
2022-11-09T20:36:57.481Z,1015.96
2022-11-09T20:41:56.766Z,1015.97
2022-11-09T20:46:55.885Z,1015.96
2022-11-09T20:51:55.950Z,1016.01
2022-11-09T20:56:55.448Z,1016.05
2022-11-09T21:01:53.549Z,1016.06
2022-11-09T21:06:53.919Z,1016.04
2022-11-09T21:11:51.953Z,1016.09
2022-11-09T21:16:51.146Z,1016.12
2022-11-09T21:21:50.384Z,1016.24
2022-11-09T21:26:50.595Z,1016.52
2022-11-09T21:31:48.771Z,1016.50
2022-11-09T21:36:48.001Z,1016.52
2022-11-09T21:41:47.258Z,1016.70
2022-11-09T21:46:46.733Z,1016.74
2022-11-09T21:51:46.696Z,1016.72
2022-11-09T21:56:45.887Z,1016.70
2022-11-09T22:01:45.156Z,1016.74
2022-11-09T22:06:44.278Z,1016.91
2022-11-09T22:11:43.482Z,1016.79
2022-11-09T22:16:42.685Z,1016.76
2022-11-09T22:21:40.886Z,1016.74
2022-11-09T22:26:40.137Z,1016.81
2022-11-09T22:31:40.340Z,1016.91
2022-11-09T22:36:38.626Z,1016.98
2022-11-09T22:41:36.885Z,1017.09
2022-11-09T22:46:37.151Z,1017.30
2022-11-09T22:51:35.378Z,1017.28
2022-11-09T22:56:35.631Z,1017.32
2022-11-09T23:01:35.005Z,1017.32
2022-11-09T23:06:34.090Z,1017.36
2022-11-09T23:11:35.380Z,1017.37
2022-11-09T23:16:31.564Z,1017.25
2022-11-09T23:21:31.892Z,1017.35
2022-11-09T23:26:30.104Z,1017.40
2022-11-09T23:31:30.337Z,1017.47
2022-11-09T23:36:28.622Z,1017.49
2022-11-09T23:41:28.823Z,1017.46
2022-11-09T23:46:29.015Z,1017.50
2022-11-09T23:51:26.218Z,1017.46
2022-11-09T23:56:26.398Z,1017.21
